Time;durP1;ratioP1;P1;durP2;ratioP2;P2;SDS_P1;SDS_P2;PMS_P1;PMS_P2;Temp;Humidity;BMP_temperature;BMP_pressure;BME280_temperature;BME280_humidity;BME280_pressure;Samples;Min_cycle;Max_cycle;Signal;HPM_P1;HPM_P2
2023/02/09 00:00:31;;;;;;;3.35;2.80;;;;;;;;;;10328443;28;20071;-63
2023/02/09 00:05:32;;;;;;;5.00;3.03;;;;;;;;;;10326577;28;20026;-62
2023/02/09 00:10:32;;;;;;;4.05;3.08;;;;;;;;;;10327586;28;20029;-62
2023/02/09 00:15:33;;;;;;;3.03;2.72;;;;;;;;;;10327762;28;20030;-62
2023/02/09 00:20:33;;;;;;;4.15;3.17;;;;;;;;;;10326573;28;20042;-63
2023/02/09 00:25:34;;;;;;;3.50;2.85;;;;;;;;;;10326749;28;20050;-62
2023/02/09 00:30:36;;;;;;;4.15;2.88;;;;;;;;;;10326908;28;20170;-62
2023/02/09 00:35:41;;;;;;;3.75;3.10;;;;;;;;;;10326588;28;20050;-63
2023/02/09 00:40:42;;;;;;;3.80;2.50;;;;;;;;;;10326392;28;20061;-63
2023/02/09 00:45:43;;;;;;;5.30;3.20;;;;;;;;;;10326023;28;20463;-63
2023/02/09 00:50:43;;;;;;;4.88;3.28;;;;;;;;;;10326498;28;20033;-66
2023/02/09 00:55:44;;;;;;;3.15;2.85;;;;;;;;;;10325654;28;20085;-63
2023/02/09 01:00:44;;;;;;;4.65;2.78;;;;;;;;;;10326736;28;20026;-62
2023/02/09 01:05:45;;;;;;;5.90;2.70;;;;;;;;;;10325957;28;20026;-62
2023/02/09 01:10:46;;;;;;;4.22;2.95;;;;;;;;;;10326422;28;20489;-62
2023/02/09 01:15:46;;;;;;;3.80;2.60;;;;;;;;;;10324993;28;20470;-62
2023/02/09 01:20:47;;;;;;;5.00;2.67;;;;;;;;;;10325850;28;20402;-62
2023/02/09 01:25:47;;;;;;;3.30;2.60;;;;;;;;;;10325866;28;20355;-62
2023/02/09 01:30:48;;;;;;;5.22;2.92;;;;;;;;;;10325284;28;20093;-65
2023/02/09 01:35:48;;;;;;;3.25;2.85;;;;;;;;;;10325099;28;20042;-65
2023/02/09 01:40:49;;;;;;;3.33;2.40;;;;;;;;;;10325174;28;20258;-65
2023/02/09 01:45:55;;;;;;;2.58;2.38;;;;;;;;;;10325208;28;20558;-65
2023/02/09 01:50:59;;;;;;;3.50;2.83;;;;;;;;;;10324742;28;20125;-65
2023/02/09 01:56:13;;;;;;;3.92;2.47;;;;;;;;;;10329673;28;20078;-65
2023/02/09 02:01:15;;;;;;;3.50;2.55;;;;;;;;;;10331237;28;20121;-65
2023/02/09 02:06:17;;;;;;;3.10;2.35;;;;;;;;;;10347661;28;20030;-65
2023/02/09 02:11:19;;;;;;;3.38;2.60;;;;;;;;;;10346409;28;20489;-66
2023/02/09 02:16:31;;;;;;;2.42;2.20;;;;;;;;;;10330718;28;20474;-64
2023/02/09 02:22:05;;;;;;;3.67;2.67;;;;;;;;;;10330824;28;20072;-64
2023/02/09 02:27:29;;;;;;;2.50;2.30;;;;;;;;;;10344552;28;20035;-64
2023/02/09 02:32:39;;;;;;;4.60;2.40;;;;;;;;;;10328739;28;20030;-64
2023/02/09 02:38:17;;;;;;;4.75;2.38;;;;;;;;;;10330474;28;20091;-64
2023/02/09 02:43:50;;;;;;;2.25;2.05;;;;;;;;;;10330366;28;20390;-64
2023/02/09 02:49:04;;;;;;;3.85;2.33;;;;;;;;;;10329577;28;20030;-64
2023/02/09 02:54:11;;;;;;;2.80;2.17;;;;;;;;;;10329368;28;20030;-61
2023/02/09 02:59:21;;;;;;;3.00;2.30;;;;;;;;;;10330532;28;20054;-62
2023/02/09 03:04:22;;;;;;;2.45;2.20;;;;;;;;;;10326301;28;20117;-62
2023/02/09 03:09:23;;;;;;;2.47;2.25;;;;;;;;;;10328179;28;20088;-66
2023/02/09 03:14:46;;;;;;;2.40;2.20;;;;;;;;;;10330074;28;20041;-66
2023/02/09 03:20:10;;;;;;;4.10;2.45;;;;;;;;;;10329597;28;20027;-66
2023/02/09 03:25:33;;;;;;;3.33;2.60;;;;;;;;;;10327618;28;20100;-66
2023/02/09 03:30:35;;;;;;;2.75;2.10;;;;;;;;;;10328530;28;20105;-66
2023/02/09 03:35:40;;;;;;;3.17;2.55;;;;;;;;;;10327001;28;20058;-66
2023/02/09 03:40:40;;;;;;;2.30;2.10;;;;;;;;;;10328814;28;20037;-66
2023/02/09 03:45:41;;;;;;;3.30;2.40;;;;;;;;;;10327946;28;20041;-66
2023/02/09 03:50:41;;;;;;;3.03;2.20;;;;;;;;;;10327695;28;20027;-66
2023/02/09 03:55:42;;;;;;;2.97;2.00;;;;;;;;;;10327018;28;20026;-65
2023/02/09 04:00:42;;;;;;;2.60;2.40;;;;;;;;;;10327868;28;20508;-65
2023/02/09 04:05:43;;;;;;;2.40;2.20;;;;;;;;;;10327125;28;20045;-65
2023/02/09 04:10:44;;;;;;;2.78;2.30;;;;;;;;;;10327619;28;20026;-64
2023/02/09 04:15:44;;;;;;;2.22;2.03;;;;;;;;;;10327219;28;20038;-64
2023/02/09 04:20:45;;;;;;;2.30;2.10;;;;;;;;;;10326808;28;20026;-65
2023/02/09 04:25:46;;;;;;;2.25;2.05;;;;;;;;;;10326903;28;20026;-64
2023/02/09 04:30:53;;;;;;;3.17;2.20;;;;;;;;;;10326170;28;20037;-66
2023/02/09 04:35:53;;;;;;;2.35;1.90;;;;;;;;;;10326603;28;20359;-63
2023/02/09 04:40:57;;;;;;;2.55;2.15;;;;;;;;;;10326044;28;20038;-62
2023/02/09 04:45:59;;;;;;;2.92;2.00;;;;;;;;;;10326708;28;20070;-62
2023/02/09 04:50:59;;;;;;;3.80;2.38;;;;;;;;;;10325611;28;20032;-62
2023/02/09 04:56:00;;;;;;;2.67;1.98;;;;;;;;;;10326309;28;20034;-62
2023/02/09 05:01:02;;;;;;;1.85;1.75;;;;;;;;;;10326177;28;20032;-62
2023/02/09 05:06:04;;;;;;;2.05;1.85;;;;;;;;;;10325446;28;20034;-62
2023/02/09 05:11:05;;;;;;;2.30;1.83;;;;;;;;;;10325403;28;20040;-62
2023/02/09 05:16:08;;;;;;;2.40;2.00;;;;;;;;;;10325814;28;20026;-62
2023/02/09 05:21:08;;;;;;;2.10;1.90;;;;;;;;;;10325955;28;20025;-62
2023/02/09 05:26:09;;;;;;;2.50;1.80;;;;;;;;;;10325425;28;20038;-62
2023/02/09 05:31:09;;;;;;;2.28;2.08;;;;;;;;;;10334660;28;20014;-63
2023/02/09 05:36:11;;;;;;;2.20;2.00;;;;;;;;;;10333807;28;20383;-65
2023/02/09 05:46:32;;;;;;;2.22;2.03;;;;;;;;;;10332577;28;20434;-65
2023/02/09 05:51:32;;;;;;;2.33;2.03;;;;;;;;;;10332485;28;20068;-65
2023/02/09 05:56:34;;;;;;;2.55;2.00;;;;;;;;;;10332404;28;20022;-64
2023/02/09 06:01:34;;;;;;;2.20;2.00;;;;;;;;;;10330908;28;20114;-65
2023/02/09 06:06:35;;;;;;;1.88;1.77;;;;;;;;;;10332418;28;20450;-65
2023/02/09 06:11:36;;;;;;;1.90;1.80;;;;;;;;;;10330083;28;20485;-65
2023/02/09 06:16:37;;;;;;;2.53;2.20;;;;;;;;;;10332133;28;20462;-66
2023/02/09 06:21:37;;;;;;;2.63;2.05;;;;;;;;;;10329755;28;20043;-66
2023/02/09 06:26:38;;;;;;;2.40;2.20;;;;;;;;;;10332256;28;20092;-65
2023/02/09 06:31:40;;;;;;;5.53;1.85;;;;;;;;;;10330405;28;20421;-62
2023/02/09 06:36:41;;;;;;;4.07;2.00;;;;;;;;;;10329429;28;20043;-64
2023/02/09 06:41:41;;;;;;;4.30;2.05;;;;;;;;;;10329891;28;20030;-64
2023/02/09 06:46:42;;;;;;;2.28;2.08;;;;;;;;;;10326826;28;20019;-64
2023/02/09 06:51:42;;;;;;;3.33;2.22;;;;;;;;;;10326616;28;20466;-63
2023/02/09 06:56:43;;;;;;;11.65;2.67;;;;;;;;;;10329118;28;20030;-64
2023/02/09 07:01:43;;;;;;;10.70;4.13;;;;;;;;;;10324134;28;20092;-69
2023/02/09 07:06:44;;;;;;;4.68;2.65;;;;;;;;;;10328749;28;20037;-68
2023/02/09 07:11:45;;;;;;;7.15;3.13;;;;;;;;;;10327091;28;20378;-70
2023/02/09 07:16:45;;;;;;;14.95;2.95;;;;;;;;;;10329616;28;20170;-67
2023/02/09 07:21:47;;;;;;;4.93;2.72;;;;;;;;;;10329696;28;20096;-72
2023/02/09 07:26:48;;;;;;;22.38;3.10;;;;;;;;;;10329152;28;20030;-65
2023/02/09 07:31:49;;;;;;;11.68;2.83;;;;;;;;;;10328366;28;20041;-66
2023/02/09 07:36:49;;;;;;;7.95;3.38;;;;;;;;;;10328484;28;20042;-71
2023/02/09 07:41:50;;;;;;;7.80;3.05;;;;;;;;;;10329369;28;20025;-72
2023/02/09 07:46:51;;;;;;;5.10;2.88;;;;;;;;;;10328252;28;20489;-69
2023/02/09 07:51:51;;;;;;;7.88;3.22;;;;;;;;;;10328054;28;20034;-72
2023/02/09 07:56:54;;;;;;;11.38;3.80;;;;;;;;;;10327949;28;20041;-66
2023/02/09 08:01:55;;;;;;;9.13;3.35;;;;;;;;;;10327493;28;20041;-72
2023/02/09 08:06:56;;;;;;;6.38;3.35;;;;;;;;;;10328030;28;20034;-72
2023/02/09 08:12:02;;;;;;;9.55;3.33;;;;;;;;;;10327976;28;20030;-72
2023/02/09 08:17:20;;;;;;;5.10;3.13;;;;;;;;;;10326329;28;20359;-71
2023/02/09 08:22:22;;;;;;;6.22;3.30;;;;;;;;;;10322119;28;20035;-72
2023/02/09 08:27:23;;;;;;;8.65;3.78;;;;;;;;;;10327653;28;20625;-65
2023/02/09 08:32:23;;;;;;;7.65;3.22;;;;;;;;;;10326604;28;20230;-71
2023/02/09 08:37:24;;;;;;;7.88;3.47;;;;;;;;;;10326630;28;20042;-68
2023/02/09 08:42:24;;;;;;;8.75;3.83;;;;;;;;;;10327232;28;20030;-72
2023/02/09 08:47:25;;;;;;;9.40;3.90;;;;;;;;;;10326608;28;20026;-72
2023/02/09 08:52:25;;;;;;;13.23;3.70;;;;;;;;;;10326834;28;20038;-72
2023/02/09 08:57:26;;;;;;;5.00;3.28;;;;;;;;;;10326398;28;20029;-72
2023/02/09 09:02:27;;;;;;;10.50;3.20;;;;;;;;;;10324764;28;20034;-72
2023/02/09 09:07:27;;;;;;;11.00;3.60;;;;;;;;;;10326392;28;20034;-71
2023/02/09 09:12:29;;;;;;;5.53;3.42;;;;;;;;;;10326056;28;20029;-71
2023/02/09 09:17:30;;;;;;;6.68;3.72;;;;;;;;;;10325761;28;20096;-70
2023/02/09 09:22:31;;;;;;;8.57;3.35;;;;;;;;;;10325920;28;20470;-72
2023/02/09 09:27:33;;;;;;;6.10;3.78;;;;;;;;;;10325642;28;20042;-72
2023/02/09 09:32:34;;;;;;;5.65;3.70;;;;;;;;;;10325296;28;20371;-63
2023/02/09 09:37:34;;;;;;;6.38;3.53;;;;;;;;;;10325481;28;20046;-64
2023/02/09 09:42:47;;;;;;;6.95;3.47;;;;;;;;;;10325572;28;20022;-62
2023/02/09 09:47:48;;;;;;;4.07;3.15;;;;;;;;;;10313650;28;20489;-63
2023/02/09 09:52:53;;;;;;;8.77;3.60;;;;;;;;;;10324013;28;20109;-69
2023/02/09 09:57:57;;;;;;;8.52;3.25;;;;;;;;;;10325111;28;20488;-66
2023/02/09 10:02:57;;;;;;;5.78;3.40;;;;;;;;;;10325032;28;20026;-67
2023/02/09 10:08:02;;;;;;;6.60;3.60;;;;;;;;;;10324869;28;20031;-65
2023/02/09 10:13:28;;;;;;;6.85;3.28;;;;;;;;;;10327181;28;20486;-63
2023/02/09 10:18:32;;;;;;;10.25;3.80;;;;;;;;;;10329199;28;20181;-71
2023/02/09 10:23:40;;;;;;;5.78;3.60;;;;;;;;;;10332319;28;20025;-65
2023/02/09 10:28:47;;;;;;;4.57;3.35;;;;;;;;;;10331909;28;20037;-70
2023/02/09 10:34:03;;;;;;;5.82;3.30;;;;;;;;;;10331473;28;20522;-63
2023/02/09 10:39:18;;;;;;;5.93;4.13;;;;;;;;;;10371883;22;20053;-56
2023/02/09 10:44:32;;;;;;;8.18;3.33;;;;;;;;;;10370397;28;20033;-55
2023/02/09 10:49:38;;;;;;;5.53;3.20;;;;;;;;;;10370454;28;20101;-56
2023/02/09 10:54:58;;;;;;;4.57;3.33;;;;;;;;;;10371116;28;20057;-56
2023/02/09 11:00:41;;;;;;;6.45;3.40;;;;;;;;;;10371369;28;20056;-55
2023/02/09 11:05:46;;;;;;;7.20;3.65;;;;;;;;;;10326852;28;20034;-56
2023/02/09 11:11:18;;;;;;;3.90;3.10;;;;;;;;;;10370742;28;20583;-55
2023/02/09 11:16:48;;;;;;;5.47;3.38;;;;;;;;;;10369809;28;20045;-56
2023/02/09 11:21:54;;;;;;;11.63;3.75;;;;;;;;;;10369897;28;20037;-57
2023/02/09 11:27:34;;;;;;;4.65;3.60;;;;;;;;;;10369239;28;20106;-58
2023/02/09 11:32:52;;;;;;;4.28;3.00;;;;;;;;;;10369853;28;20025;-55
2023/02/09 11:38:01;;;;;;;4.22;3.45;;;;;;;;;;10357502;28;20094;-56
2023/02/09 11:43:22;;;;;;;5.68;3.58;;;;;;;;;;10368525;28;20068;-61
2023/02/09 11:48:31;;;;;;;5.63;3.00;;;;;;;;;;10369200;28;20072;-56
2023/02/09 11:53:54;;;;;;;6.07;3.25;;;;;;;;;;10368072;28;20354;-56
2023/02/09 11:59:02;;;;;;;5.40;3.58;;;;;;;;;;10368099;28;20026;-56
2023/02/09 12:04:23;;;;;;;4.78;3.20;;;;;;;;;;10355667;28;20022;-56
2023/02/09 12:10:05;;;;;;;4.03;3.10;;;;;;;;;;10368536;28;20485;-55
2023/02/09 12:15:21;;;;;;;6.32;3.50;;;;;;;;;;10368018;28;20026;-58
2023/02/09 12:20:37;;;;;;;5.80;3.03;;;;;;;;;;10367995;28;20108;-54
2023/02/09 12:25:52;;;;;;;4.15;2.90;;;;;;;;;;10362478;28;20480;-57
2023/02/09 12:30:58;;;;;;;6.68;4.18;;;;;;;;;;10365272;28;20030;-56
2023/02/09 12:36:08;;;;;;;4.97;3.35;;;;;;;;;;10366719;28;20046;-57
2023/02/09 12:41:09;;;;;;;5.38;3.30;;;;;;;;;;10352878;28;20122;-55
2023/02/09 12:46:28;;;;;;;5.30;3.10;;;;;;;;;;10363364;28;20038;-57
2023/02/09 12:51:49;;;;;;;15.07;3.03;;;;;;;;;;10366063;28;20037;-57
2023/02/09 12:56:49;;;;;;;5.35;2.67;;;;;;;;;;10359921;28;20029;-57
2023/02/09 13:02:22;;;;;;;3.38;3.08;;;;;;;;;;10367131;28;20022;-57
2023/02/09 13:08:21;;;;;;;4.80;3.22;;;;;;;;;;10338656;28;20042;-55
2023/02/09 13:13:41;;;;;;;3.17;2.63;;;;;;;;;;10320820;28;20049;-55
2023/02/09 13:19:36;;;;;;;3.70;2.90;;;;;;;;;;10373929;28;20120;-55
2023/02/09 13:24:47;;;;;;;3.95;2.72;;;;;;;;;;10334928;28;20589;-56
2023/02/09 13:29:52;;;;;;;4.68;2.75;;;;;;;;;;10364636;28;20421;-57
2023/02/09 13:35:19;;;;;;;3.70;3.00;;;;;;;;;;10365395;28;20028;-55
2023/02/09 13:40:30;;;;;;;7.45;3.00;;;;;;;;;;10363636;28;20077;-56
2023/02/09 13:45:31;;;;;;;3.25;2.70;;;;;;;;;;10358769;28;20153;-56
2023/02/09 13:50:32;;;;;;;4.78;2.88;;;;;;;;;;10363812;28;20140;-55
2023/02/09 13:55:38;;;;;;;3.92;3.17;;;;;;;;;;10361083;28;20040;-62
2023/02/09 14:00:47;;;;;;;10.27;3.05;;;;;;;;;;10361181;28;20072;-60
2023/02/09 14:05:50;;;;;;;23.23;3.60;;;;;;;;;;10354110;28;20452;-58
2023/02/09 14:11:07;;;;;;;14.40;4.22;;;;;;;;;;10349174;28;20109;-59
2023/02/09 14:16:08;;;;;;;70.72;5.70;;;;;;;;;;10372394;28;20402;-60
2023/02/09 14:21:14;;;;;;;25.13;3.53;;;;;;;;;;10363680;28;20037;-60
2023/02/09 14:26:22;;;;;;;17.10;3.75;;;;;;;;;;10348657;28;20451;-58
2023/02/09 14:31:25;;;;;;;12.30;4.78;;;;;;;;;;10355348;28;20338;-58
2023/02/09 14:36:34;;;;;;;11.60;3.30;;;;;;;;;;10355169;28;20073;-58
2023/02/09 14:41:35;;;;;;;11.63;3.45;;;;;;;;;;10365670;28;20473;-58
2023/02/09 14:46:55;;;;;;;6.15;3.05;;;;;;;;;;10369500;28;20070;-57
2023/02/09 14:52:03;;;;;;;8.60;3.60;;;;;;;;;;10361744;28;20014;-57
2023/02/09 14:57:03;;;;;;;8.48;3.85;;;;;;;;;;10365934;28;20028;-57
2023/02/09 15:02:18;;;;;;;6.10;3.35;;;;;;;;;;10364490;28;20482;-58
2023/02/09 15:07:34;;;;;;;10.35;3.20;;;;;;;;;;10356840;28;20037;-58
2023/02/09 15:12:35;;;;;;;10.45;3.05;;;;;;;;;;10338420;28;20044;-58
2023/02/09 15:17:35;;;;;;;6.38;2.97;;;;;;;;;;10353809;28;20374;-58
2023/02/09 15:22:36;;;;;;;15.88;3.25;;;;;;;;;;10357069;28;20408;-57
2023/02/09 15:27:43;;;;;;;9.38;2.97;;;;;;;;;;10358779;28;20382;-57
2023/02/09 15:32:44;;;;;;;5.05;2.47;;;;;;;;;;10366386;28;20604;-58
2023/02/09 15:37:53;;;;;;;7.00;3.00;;;;;;;;;;10362645;28;20117;-58
2023/02/09 15:48:14;;;;;;;7.38;2.85;;;;;;;;;;10352318;28;20193;-58
2023/02/09 15:53:17;;;;;;;4.50;2.63;;;;;;;;;;10352835;28;20040;-58
2023/02/09 15:58:29;;;;;;;4.60;2.80;;;;;;;;;;10358389;28;20026;-58
2023/02/09 16:03:33;;;;;;;8.93;3.22;;;;;;;;;;10355544;28;20023;-58
2023/02/09 16:08:34;;;;;;;6.80;2.80;;;;;;;;;;10368499;28;20040;-58
2023/02/09 16:13:35;;;;;;;6.82;3.13;;;;;;;;;;10367969;28;20022;-58
2023/02/09 16:18:36;;;;;;;5.18;2.70;;;;;;;;;;10368336;28;20028;-57
2023/02/09 16:23:36;;;;;;;3.83;2.55;;;;;;;;;;10368778;28;20029;-58
2023/02/09 16:28:37;;;;;;;7.65;2.60;;;;;;;;;;10367806;28;20026;-57
2023/02/09 16:33:40;;;;;;;6.40;2.53;;;;;;;;;;10367736;28;20026;-57
2023/02/09 16:38:40;;;;;;;5.85;3.10;;;;;;;;;;10367054;28;20046;-58
2023/02/09 16:43:41;;;;;;;5.00;2.80;;;;;;;;;;10367224;28;20034;-61
2023/02/09 16:48:44;;;;;;;6.78;3.00;;;;;;;;;;10367148;28;20036;-58
2023/02/09 16:53:50;;;;;;;3.90;2.42;;;;;;;;;;10366645;28;20025;-58
2023/02/09 16:58:50;;;;;;;3.45;2.58;;;;;;;;;;10365628;28;20021;-58
2023/02/09 17:03:55;;;;;;;5.70;3.08;;;;;;;;;;10355142;28;20468;-58
2023/02/09 17:08:57;;;;;;;3.40;2.50;;;;;;;;;;10364683;28;20022;-57
2023/02/09 17:13:58;;;;;;;4.95;2.88;;;;;;;;;;10362110;28;20108;-58
2023/02/09 17:19:00;;;;;;;4.78;3.33;;;;;;;;;;10347881;28;20026;-58
2023/02/09 17:24:03;;;;;;;7.75;3.13;;;;;;;;;;10360894;28;20269;-59
2023/02/09 17:29:04;;;;;;;9.77;3.70;;;;;;;;;;10380391;28;20030;-58
2023/02/09 17:34:07;;;;;;;4.15;3.25;;;;;;;;;;10373496;28;20029;-59
2023/02/09 17:39:10;;;;;;;8.80;3.30;;;;;;;;;;10361086;28;20080;-58
2023/02/09 17:44:19;;;;;;;4.38;3.20;;;;;;;;;;10380662;28;20105;-58
2023/02/09 17:49:19;;;;;;;;;;;;;;;;;;10373866;28;20036;-58
2023/02/09 17:54:20;;;;;;;5.60;3.00;;;;;;;;;;10372755;28;20368;-59
2023/02/09 17:59:21;;;;;;;6.55;3.33;;;;;;;;;;10374400;28;20034;-59
2023/02/09 18:04:25;;;;;;;7.35;2.80;;;;;;;;;;10362793;28;20026;-59
2023/02/09 18:09:26;;;;;;;4.40;3.05;;;;;;;;;;10366547;28;20125;-59
2023/02/09 18:14:30;;;;;;;3.25;2.75;;;;;;;;;;10364209;28;20026;-61
2023/02/09 18:19:31;;;;;;;5.03;2.90;;;;;;;;;;10366665;28;20037;-59
2023/02/09 18:24:34;;;;;;;9.80;3.35;;;;;;;;;;10364798;28;20133;-58
2023/02/09 18:29:35;;;;;;;4.63;3.22;;;;;;;;;;10357373;28;20228;-58
2023/02/09 18:34:35;;;;;;;4.65;2.95;;;;;;;;;;10368216;28;20578;-58
2023/02/09 18:39:39;;;;;;;5.00;2.90;;;;;;;;;;10362413;28;20498;-59
2023/02/09 18:44:40;;;;;;;7.40;3.15;;;;;;;;;;10355322;28;20038;-62
2023/02/09 18:49:40;;;;;;;8.50;3.55;;;;;;;;;;10353772;28;20386;-62
2023/02/09 18:54:41;;;;;;;9.93;3.40;;;;;;;;;;10356438;28;20113;-63
2023/02/09 18:59:43;;;;;;;6.45;2.83;;;;;;;;;;10350613;28;20026;-62
2023/02/09 19:04:44;;;;;;;5.25;3.05;;;;;;;;;;10353124;28;20129;-62
2023/02/09 19:09:44;;;;;;;6.03;3.28;;;;;;;;;;10362392;28;20257;-59
2023/02/09 19:14:45;;;;;;;9.10;2.92;;;;;;;;;;10360233;28;20504;-57
2023/02/09 19:19:47;;;;;;;13.43;3.65;;;;;;;;;;10369256;28;20176;-59
2023/02/09 19:24:48;;;;;;;13.35;5.10;;;;;;;;;;10359655;28;20088;-60
2023/02/09 19:29:57;;;;;;;12.48;5.28;;;;;;;;;;10369349;28;20551;-59
2023/02/09 19:34:58;;;;;;;9.15;4.88;;;;;;;;;;10365557;28;20054;-59
2023/02/09 19:40:16;;;;;;;16.05;5.72;;;;;;;;;;10368401;28;20046;-59
2023/02/09 19:45:16;;;;;;;14.95;5.70;;;;;;;;;;10361484;28;20044;-59
2023/02/09 19:50:17;;;;;;;12.68;4.82;;;;;;;;;;10367340;28;20033;-59
2023/02/09 19:55:17;;;;;;;16.15;5.47;;;;;;;;;;10362582;28;20030;-58
2023/02/09 20:00:18;;;;;;;11.80;5.63;;;;;;;;;;10366840;28;20473;-59
2023/02/09 20:05:19;;;;;;;12.60;6.07;;;;;;;;;;10356953;28;20030;-60
2023/02/09 20:10:21;;;;;;;14.73;5.53;;;;;;;;;;10367820;28;20088;-58
2023/02/09 20:15:22;;;;;;;26.42;5.82;;;;;;;;;;10350123;28;20397;-57
2023/02/09 20:20:23;;;;;;;17.40;6.53;;;;;;;;;;10354554;28;20055;-57
2023/02/09 20:25:23;;;;;;;16.75;6.25;;;;;;;;;;10353747;28;20037;-57
2023/02/09 20:30:24;;;;;;;12.73;5.90;;;;;;;;;;10353092;28;20325;-59
2023/02/09 20:35:25;;;;;;;16.55;7.38;;;;;;;;;;10364610;28;20045;-57
2023/02/09 20:40:27;;;;;;;13.57;6.75;;;;;;;;;;10356814;28;20046;-57
2023/02/09 20:50:57;;;;;;;20.65;7.50;;;;;;;;;;10339440;28;20397;-58
2023/02/09 20:55:58;;;;;;;19.10;7.10;;;;;;;;;;10366889;28;20037;-58
2023/02/09 21:00:59;;;;;;;14.07;7.20;;;;;;;;;;10359647;28;20026;-58
2023/02/09 21:05:59;;;;;;;13.57;7.30;;;;;;;;;;10353794;28;20034;-57
2023/02/09 21:11:00;;;;;;;18.15;7.55;;;;;;;;;;10365655;28;20490;-58
2023/02/09 21:16:02;;;;;;;14.02;6.43;;;;;;;;;;10364156;28;20038;-58
2023/02/09 21:21:05;;;;;;;22.00;7.60;;;;;;;;;;10364350;28;20040;-57
2023/02/09 21:26:08;;;;;;;14.93;7.22;;;;;;;;;;10365347;28;20199;-58
2023/02/09 21:31:11;;;;;;;16.27;8.20;;;;;;;;;;10363919;28;20030;-57
2023/02/09 21:36:12;;;;;;;16.05;7.85;;;;;;;;;;10364309;28;20150;-58
2023/02/09 21:46:37;;;;;;;12.23;7.88;;;;;;;;;;10366739;28;20030;-58
2023/02/09 21:51:40;;;;;;;15.00;8.77;;;;;;;;;;10364733;28;20069;-58
2023/02/09 21:56:42;;;;;;;16.02;8.48;;;;;;;;;;10361100;28;20413;-58
2023/02/09 22:01:42;;;;;;;16.08;8.02;;;;;;;;;;10364451;28;20104;-58
2023/02/09 22:06:43;;;;;;;14.80;8.18;;;;;;;;;;10352402;28;20029;-57
2023/02/09 22:11:43;;;;;;;17.67;8.43;;;;;;;;;;10370580;28;20037;-58
2023/02/09 22:16:45;;;;;;;16.42;8.35;;;;;;;;;;10371870;28;20032;-60
2023/02/09 22:21:46;;;;;;;18.27;8.70;;;;;;;;;;10372880;28;20028;-58
2023/02/09 22:26:46;;;;;;;15.18;8.27;;;;;;;;;;10370852;28;20366;-57
2023/02/09 22:31:47;;;;;;;14.80;8.02;;;;;;;;;;10372241;28;20529;-57
2023/02/09 22:36:52;;;;;;;12.55;8.35;;;;;;;;;;10372131;28;20041;-58
2023/02/09 22:41:58;;;;;;;12.32;7.88;;;;;;;;;;10371146;28;20029;-58
2023/02/09 22:46:58;;;;;;;12.30;8.00;;;;;;;;;;10372522;28;20025;-58
2023/02/09 22:51:59;;;;;;;11.50;7.68;;;;;;;;;;10367500;28;20463;-61
2023/02/09 22:56:59;;;;;;;15.00;8.55;;;;;;;;;;10355858;28;20074;-58
2023/02/09 23:02:01;;;;;;;18.15;7.50;;;;;;;;;;10365705;28;20034;-58
2023/02/09 23:07:03;;;;;;;15.15;7.32;;;;;;;;;;10353619;28;20080;-57
2023/02/09 23:12:04;;;;;;;12.68;7.32;;;;;;;;;;10351992;28;20022;-58
2023/02/09 23:17:05;;;;;;;15.50;7.75;;;;;;;;;;10368951;28;20362;-57
2023/02/09 23:22:05;;;;;;;12.88;7.57;;;;;;;;;;10347681;28;20036;-58
2023/02/09 23:27:06;;;;;;;12.00;7.32;;;;;;;;;;10357764;28;20502;-58
2023/02/09 23:32:07;;;;;;;13.77;6.95;;;;;;;;;;10362740;28;20076;-57
2023/02/09 23:37:07;;;;;;;9.68;6.93;;;;;;;;;;10356703;28;20519;-57
2023/02/09 23:42:08;;;;;;;17.20;7.38;;;;;;;;;;10359604;28;20437;-58
2023/02/09 23:47:09;;;;;;;14.15;7.20;;;;;;;;;;10356653;28;20426;-56
2023/02/09 23:52:09;;;;;;;14.70;7.43;;;;;;;;;;10350483;28;20383;-56
2023/02/09 23:57:10;;;;;;;11.73;6.72;;;;;;;;;;10349490;28;20018;-56
